createdAt,value
2022-12-15T00:04:34.816Z,95881.16
2022-12-15T00:09:55.157Z,95881.28
2022-12-15T00:15:15.538Z,95875.22
2022-12-15T00:20:35.791Z,95884.78
2022-12-15T00:25:56.221Z,95888.53
2022-12-15T00:31:17.077Z,95906.66
2022-12-15T00:36:37.188Z,95901.03
2022-12-15T00:41:38.869Z,95908.88
2022-12-15T00:46:56.118Z,95905.00
2022-12-15T00:52:16.634Z,95904.91
2022-12-15T00:57:36.806Z,95903.25
2022-12-15T01:02:57.356Z,95909.81
2022-12-15T01:08:18.112Z,95916.22
2022-12-15T01:13:38.557Z,95923.94
2022-12-15T01:18:58.904Z,95929.00
2022-12-15T01:24:00.573Z,95930.63
2022-12-15T01:29:02.157Z,95938.53
2022-12-15T01:34:03.797Z,95949.75
2022-12-15T01:39:05.422Z,95952.13
2022-12-15T01:44:15.902Z,95966.50
2022-12-15T01:49:20.990Z,95972.25
2022-12-15T01:54:28.390Z,95980.53
2022-12-15T01:59:33.013Z,95986.84
2022-12-15T02:04:34.965Z,95989.06
2022-12-15T02:09:36.537Z,95975.09
2022-12-15T02:14:54.097Z,95979.22
2022-12-15T02:20:34.141Z,95969.63
2022-12-15T02:25:54.608Z,95978.84
2022-12-15T02:31:20.079Z,95984.31
2022-12-15T02:36:42.032Z,95991.81
2022-12-15T02:41:44.955Z,96020.69
2022-12-15T02:46:49.614Z,96008.41
2022-12-15T02:52:00.558Z,96020.63
2022-12-15T02:57:17.964Z,96022.75
2022-12-15T03:02:19.739Z,96026.25
2022-12-15T03:07:23.539Z,96041.91
2022-12-15T03:12:25.307Z,96033.03
2022-12-15T03:17:27.497Z,96044.81
2022-12-15T03:22:29.109Z,96045.44
2022-12-15T03:27:31.072Z,96055.88
2022-12-15T03:32:32.622Z,96062.41
2022-12-15T03:37:34.265Z,96060.41
2022-12-15T03:42:51.244Z,96074.00
2022-12-15T03:47:53.413Z,96071.13
2022-12-15T03:52:56.025Z,96083.72
2022-12-15T03:57:57.893Z,96068.84
2022-12-15T04:02:59.888Z,96070.00
2022-12-15T04:08:02.084Z,96066.53
2022-12-15T04:13:07.648Z,96072.00
2022-12-15T04:18:13.905Z,96075.19
2022-12-15T04:23:15.746Z,96091.56
2022-12-15T04:28:35.813Z,96087.03
2022-12-15T04:33:58.040Z,96075.81
2022-12-15T04:39:18.957Z,96098.16
2022-12-15T04:44:39.111Z,96094.84
2022-12-15T04:49:59.598Z,96094.47
2022-12-15T04:55:19.762Z,96092.69
2022-12-15T05:00:40.006Z,96097.50
2022-12-15T05:06:00.796Z,96113.78
2022-12-15T05:11:21.472Z,96129.84
2022-12-15T05:16:41.942Z,96111.44
2022-12-15T05:22:02.203Z,96119.63
2022-12-15T05:27:22.518Z,96133.50
2022-12-15T05:32:24.109Z,96115.97
2022-12-15T05:37:25.711Z,96130.81
2022-12-15T05:42:27.439Z,96157.63
2022-12-15T05:47:28.952Z,96158.72
2022-12-15T05:52:30.526Z,96166.81
2022-12-15T05:57:32.445Z,96176.03
2022-12-15T06:02:34.108Z,96171.28
2022-12-15T06:07:37.356Z,96177.25
2022-12-15T06:12:39.040Z,96184.00
2022-12-15T06:17:40.671Z,96167.84
2022-12-15T06:22:46.580Z,96189.59
2022-12-15T06:27:51.258Z,96185.63
2022-12-15T06:32:54.793Z,96193.84
2022-12-15T06:37:56.838Z,96201.72
2022-12-15T06:42:58.494Z,96190.63
2022-12-15T06:48:01.645Z,96188.75
2022-12-15T06:53:03.571Z,96202.44
2022-12-15T06:58:05.171Z,96203.13
2022-12-15T07:03:08.911Z,96205.84
2022-12-15T07:08:11.519Z,96201.28
2022-12-15T07:13:13.160Z,96211.81
2022-12-15T07:18:14.824Z,96219.22
2022-12-15T07:23:16.693Z,96211.88
2022-12-15T07:28:24.115Z,96207.97
2022-12-15T07:33:27.540Z,96229.44
2022-12-15T07:38:29.423Z,96227.78
2022-12-15T07:43:31.589Z,96214.22
2022-12-15T07:48:33.807Z,96204.22
2022-12-15T07:53:36.061Z,96230.28
2022-12-15T07:58:40.749Z,96233.81
2022-12-15T08:03:42.544Z,96216.47
2022-12-15T08:08:44.925Z,96234.63
2022-12-15T08:14:13.529Z,96250.69
2022-12-15T08:19:15.305Z,96255.66
2022-12-15T08:24:17.489Z,96262.97
2022-12-15T08:34:42.252Z,96267.75
2022-12-15T08:39:43.907Z,96272.53
2022-12-15T08:44:48.002Z,96294.03
2022-12-15T08:49:50.205Z,96308.78
2022-12-15T08:54:52.027Z,96308.97
2022-12-15T08:59:53.685Z,96316.75
2022-12-15T09:04:55.448Z,96320.34
2022-12-15T09:09:57.027Z,96312.78
2022-12-15T09:14:58.783Z,96316.00
2022-12-15T09:20:00.325Z,96302.44
2022-12-15T09:25:02.318Z,96292.53
2022-12-15T09:30:04.193Z,96302.22
2022-12-15T09:35:06.006Z,96282.03
2022-12-15T09:40:10.058Z,96278.88
2022-12-15T09:45:20.717Z,96270.22
2022-12-15T09:50:33.432Z,96261.78
2022-12-15T09:55:35.149Z,96262.16
2022-12-15T10:00:50.672Z,96244.09
2022-12-15T10:06:17.163Z,96246.13
2022-12-15T10:11:32.978Z,96244.03
2022-12-15T10:16:40.595Z,96240.56
2022-12-15T10:21:42.607Z,96245.94
2022-12-15T10:26:49.288Z,96252.50
2022-12-15T10:31:54.290Z,96238.44
2022-12-15T10:36:56.475Z,96235.28
2022-12-15T10:42:12.805Z,96221.09
2022-12-15T10:47:18.028Z,96202.84
2022-12-15T10:52:32.084Z,96213.88
2022-12-15T10:57:33.799Z,96215.63
2022-12-15T11:02:36.938Z,96224.66
2022-12-15T11:07:49.878Z,96217.16
2022-12-15T11:12:59.195Z,96233.44
2022-12-15T11:18:08.438Z,96223.41
2022-12-15T11:23:36.450Z,96217.88
2022-12-15T11:28:44.661Z,96196.09
2022-12-15T11:33:50.716Z,96174.06
2022-12-15T11:39:02.943Z,96191.44
2022-12-15T11:44:07.321Z,96177.38
2022-12-15T11:49:09.285Z,96185.31
2022-12-15T11:54:29.817Z,96192.69
2022-12-15T11:59:31.367Z,96185.69
2022-12-15T12:04:51.309Z,96155.59
2022-12-15T12:09:59.116Z,96167.53
2022-12-15T12:15:00.702Z,96169.28
2022-12-15T12:20:11.296Z,96185.59
2022-12-15T12:25:18.692Z,96182.66
2022-12-15T12:30:21.537Z,96190.03
2022-12-15T12:35:41.991Z,96172.81
2022-12-15T12:41:06.702Z,96166.72
2022-12-15T12:46:19.006Z,96149.97
2022-12-15T12:51:23.751Z,96126.31
2022-12-15T12:56:31.595Z,96119.25
2022-12-15T13:01:34.309Z,96102.63
2022-12-15T13:06:36.034Z,96100.50
2022-12-15T13:11:58.083Z,96097.22
2022-12-15T13:22:34.482Z,96096.31
2022-12-15T13:27:37.236Z,96081.22
2022-12-15T13:32:40.512Z,96091.84
2022-12-15T13:38:04.214Z,96090.91
2022-12-15T13:43:05.925Z,96096.28
2022-12-15T13:48:13.451Z,96100.03
2022-12-15T13:53:19.442Z,96086.47
2022-12-15T13:58:23.043Z,96085.38
2022-12-15T14:03:24.832Z,96071.31
2022-12-15T14:08:28.482Z,96075.69
2022-12-15T14:13:31.901Z,96075.69
2022-12-15T14:18:38.321Z,96073.78
2022-12-15T14:23:41.505Z,96068.88
2022-12-15T14:28:45.837Z,96055.38
2022-12-15T14:33:50.580Z,96038.19
2022-12-15T14:38:52.435Z,96037.84
2022-12-15T14:49:23.727Z,96035.38
2022-12-15T14:54:33.744Z,96025.97
2022-12-15T14:59:35.666Z,96030.91
2022-12-15T15:03:06.024Z,96040.28
2022-12-15T15:04:37.361Z,96042.75
2022-12-15T15:09:40.190Z,96035.38
2022-12-15T15:14:43.405Z,96041.44
2022-12-15T15:20:00.493Z,96049.28
2022-12-15T15:25:03.994Z,96035.09
2022-12-15T15:30:14.603Z,96031.13
2022-12-15T15:35:16.425Z,96042.69
2022-12-15T15:40:18.236Z,96042.94
2022-12-15T15:45:20.081Z,96034.06
2022-12-15T15:50:27.370Z,96036.16
2022-12-15T15:55:36.183Z,96042.63
2022-12-15T16:00:41.389Z,96034.66
2022-12-15T16:05:43.163Z,96021.31
2022-12-15T16:10:47.442Z,96025.31
2022-12-15T16:15:49.278Z,96018.84
2022-12-15T16:20:51.663Z,96019.69
2022-12-15T16:25:55.313Z,96026.34
2022-12-15T16:31:01.447Z,96008.06
2022-12-15T16:36:05.969Z,96005.13
2022-12-15T16:41:11.181Z,96004.59
2022-12-15T16:46:13.970Z,96004.00
2022-12-15T16:51:26.600Z,96002.25
2022-12-15T16:56:28.229Z,96003.56
2022-12-15T17:01:33.122Z,96004.75
2022-12-15T17:06:36.996Z,95996.91
2022-12-15T17:11:39.313Z,96010.13
2022-12-15T17:16:41.205Z,96012.59
2022-12-15T17:21:48.027Z,96006.97
2022-12-15T17:26:49.895Z,96009.88
2022-12-15T17:31:52.076Z,95988.56
2022-12-15T17:36:54.237Z,95974.75
2022-12-15T17:42:00.878Z,95977.44
2022-12-15T17:47:04.377Z,95966.44
2022-12-15T17:52:12.429Z,95944.06
2022-12-15T17:57:14.055Z,95936.22
2022-12-15T18:02:15.985Z,95932.72
2022-12-15T18:07:22.439Z,95919.03
2022-12-15T18:12:25.603Z,95930.28
2022-12-15T18:17:27.297Z,95930.50
2022-12-15T18:22:29.254Z,95933.03
2022-12-15T18:27:31.173Z,95933.03
2022-12-15T18:32:38.267Z,95929.31
2022-12-15T18:37:40.072Z,95940.41
2022-12-15T18:42:42.498Z,95933.03
2022-12-15T18:47:44.186Z,95922.50
2022-12-15T18:52:46.209Z,95917.38
2022-12-15T18:57:49.083Z,95914.13
2022-12-15T19:02:52.459Z,95903.59
2022-12-15T19:07:55.839Z,95900.06
2022-12-15T19:12:58.792Z,95882.28
2022-12-15T19:18:19.364Z,95877.38
2022-12-15T19:23:21.724Z,95866.13
2022-12-15T19:28:23.548Z,95862.00
2022-12-15T19:33:25.329Z,95845.53
2022-12-15T19:38:28.847Z,95854.66
2022-12-15T19:43:30.931Z,95844.69
2022-12-15T19:48:32.952Z,95855.47
2022-12-15T19:53:36.244Z,95857.75
2022-12-15T19:58:38.687Z,95855.59
2022-12-15T20:03:41.740Z,95859.97
2022-12-15T20:08:45.620Z,95846.25
2022-12-15T20:13:47.829Z,95848.72
2022-12-15T20:18:52.454Z,95842.25
2022-12-15T20:23:58.469Z,95844.69
2022-12-15T20:29:00.064Z,95827.16
2022-12-15T20:34:01.856Z,95821.19
2022-12-15T20:39:03.859Z,95821.19
2022-12-15T20:44:05.740Z,95816.28
2022-12-15T20:49:13.795Z,95809.34
2022-12-15T20:54:17.516Z,95804.56
2022-12-15T20:59:19.149Z,95793.78
2022-12-15T21:04:25.781Z,95787.09
2022-12-15T21:09:27.612Z,95777.13
2022-12-15T21:14:30.097Z,95768.47
2022-12-15T21:19:31.853Z,95753.16
2022-12-15T21:24:33.428Z,95752.00
2022-12-15T21:29:35.352Z,95738.31
2022-12-15T21:34:37.476Z,95731.38
2022-12-15T21:39:40.047Z,95731.13
2022-12-15T21:44:41.706Z,95729.81
2022-12-15T21:49:43.264Z,95729.81
2022-12-15T21:54:44.943Z,95736.25
2022-12-15T21:59:46.485Z,95731.47
2022-12-15T22:04:49.199Z,95736.34
2022-12-15T22:09:51.726Z,95730.50
2022-12-15T22:14:53.476Z,95730.50
2022-12-15T22:19:55.219Z,95730.78
2022-12-15T22:24:56.848Z,95738.63
2022-12-15T22:29:58.634Z,95746.16
2022-12-15T22:35:00.297Z,95751.06
2022-12-15T22:40:01.830Z,95750.22
2022-12-15T22:45:04.544Z,95755.88
2022-12-15T22:50:06.889Z,95759.88
2022-12-15T22:55:12.793Z,95756.94
2022-12-15T23:00:14.676Z,95758.22
2022-12-15T23:05:17.736Z,95758.56
2022-12-15T23:10:38.274Z,95747.78
2022-12-15T23:15:58.736Z,95742.97
2022-12-15T23:21:00.428Z,95744.50
2022-12-15T23:26:02.265Z,95736.84
2022-12-15T23:31:03.983Z,95741.41
2022-12-15T23:36:06.207Z,95734.16
2022-12-15T23:41:08.129Z,95738.47
2022-12-15T23:46:10.000Z,95741.06
2022-12-15T23:51:13.565Z,95730.72
2022-12-15T23:56:23.025Z,95729.00
